Time;durP1;ratioP1;P1;durP2;ratioP2;P2;SDS_P1;SDS_P2;PMS_P1;PMS_P2;Temp;Humidity;BMP_temperature;BMP_pressure;BME280_temperature;BME280_humidity;BME280_pressure;Samples;Min_cycle;Max_cycle;Signal;HPM_P1;HPM_P2
2022/04/05 00:00:39;;;;;;;;;;;;;;;;;;;;;
2022/04/05 00:03:25;;;;;;;;;;;;;;;;;;;;;
2022/04/05 00:05:56;;;;;;;;;;;;;;;19.75;39.22;100763.54;104673;1306;61289;-84
2022/04/05 00:08:34;;;;;;;;;;;;;;;19.75;39.36;100759.27;104830;1305;61301;-85
2022/04/05 00:11:02;;;;;;;;;;;;;;;19.75;39.32;100761.42;104684;1306;73861;-81
2022/04/05 00:13:38;;;;;;;;;;;;;;;19.75;39.13;100760.14;104671;1305;75049;-83
2022/04/05 00:16:12;;;;;;;;;;;;;;;19.75;39.14;100758.20;104568;1308;61248;-85
2022/04/05 00:18:45;;;;;;;;;;;;;;;19.74;39.25;100753.42;104660;1305;61627;-85
2022/04/05 00:21:11;;;;;;;;;;;;;;;19.74;39.34;100757.92;104656;1305;73361;-82
2022/04/05 00:23:58;;;;;;;;;;;;;;;19.74;39.25;100755.41;104662;1306;75322;-83
2022/04/05 00:26:35;;;;;;;;;;;;;;;19.73;39.38;100750.63;104664;1305;61315;-85
2022/04/05 00:29:22;;;;;;;;;;;;;;;19.73;39.28;100750.97;104836;1305;61011;-81
2022/04/05 00:32:08;;;;;;;;;;;;;;;19.73;39.41;100746.90;104680;1306;72844;-84
2022/04/05 00:34:50;;;;;;;;;;;;;;;19.73;39.41;100745.63;104665;1306;74611;-88
2022/04/05 00:37:44;;;;;;;;;;;;;;;19.73;39.31;100742.98;104817;1305;61173;-79
2022/04/05 00:40:42;;;;;;;;;;;;;;;19.73;39.22;100746.86;104582;1306;61333;-81
2022/04/05 00:43:19;;;;;;;;;;;;;;;19.73;39.27;100741.89;104825;1305;73027;-85
2022/04/05 00:45:45;;;;;;;;;;;;;;;19.73;39.18;100737.62;104581;1305;75648;-84
2022/04/05 00:48:17;;;;;;;;;;;;;;;19.73;39.16;100736.36;104642;1307;61272;-83
2022/04/05 00:50:52;;;;;;;;;;;;;;;19.72;39.34;100731.41;104653;1306;61205;-83
2022/04/05 00:53:27;;;;;;;;;;;;;;;19.72;39.15;100728.55;104663;1306;72834;-83
2022/04/05 00:55:56;;;;;;;;;;;;;;;19.72;39.34;100728.55;104626;1305;75573;-81
2022/04/05 00:58:47;;;;;;;;;;;;;;;19.72;39.28;100723.40;104603;1307;61409;-87
2022/04/05 01:01:22;;;;;;;;;;;;;;;19.71;39.11;100723.25;104849;1305;61186;-86
2022/04/05 01:03:56;;;;;;;;;;;;;;;19.71;39.17;100720.77;104578;1306;72890;-79
2022/04/05 01:06:29;;;;;;;;;;;;;;;19.71;39.19;100724.55;104630;1307;74821;-85
2022/04/05 01:09:42;;;;;;;;;;;;;;;19.71;39.26;100724.33;104354;1311;61196;-85
2022/04/05 01:12:14;;;;;;;;;;;;;;;19.71;39.21;100719.18;104331;1312;61606;-79
2022/04/05 01:14:49;;;;;;;;;;;;;;;19.70;39.18;100718.87;104306;1311;72713;-82
2022/04/05 01:17:28;;;;;;;;;;;;;;;19.70;39.27;100710.66;104302;1312;75960;-86
2022/04/05 01:19:56;;;;;;;;;;;;;;;19.70;39.24;100707.82;104254;1312;61260;-84
2022/04/05 01:22:31;;;;;;;;;;;;;;;19.70;39.31;100709.58;104344;1312;61508;-84
2022/04/05 01:25:16;;;;;;;;;;;;;;;19.69;39.27;100702.86;104245;1312;72940;-87
2022/04/05 01:28:04;;;;;;;;;;;;;;;19.69;39.23;100704.11;104269;1312;74772;-80
2022/04/05 01:30:30;;;;;;;;;;;;;;;19.69;39.17;100702.88;104324;1311;61168;-85
2022/04/05 01:33:05;;;;;;;;;;;;;;;19.69;39.20;100696.80;104336;1312;61402;-83
2022/04/05 01:35:37;;;;;;;;;;;;;;;19.69;39.24;100696.82;104301;1311;72661;-82
2022/04/05 01:38:20;;;;;;;;;;;;;;;19.69;39.12;100690.73;104351;1311;73644;-82
2022/04/05 01:40:53;;;;;;;;;;;;;;;19.68;39.11;100686.52;104368;1312;62536;-82
2022/04/05 01:43:32;;;;;;;;;;;;;;;19.68;39.28;100689.02;104370;1311;61152;-81
2022/04/05 01:46:07;;;;;;;;;;;;;;;19.68;39.20;100683.89;104408;1306;72767;-82
2022/04/05 01:48:46;;;;;;;;;;;;;;;19.68;39.19;100683.52;104574;1306;74522;-85
2022/04/05 01:51:14;;;;;;;;;;;;;;;19.67;39.25;100683.71;104671;1305;61413;-81
2022/04/05 01:54:02;;;;;;;;;;;;;;;;;;;;;
2022/04/05 01:56:31;;;;;;;;;;;;;;;19.67;39.24;100680.52;104796;1305;73238;-82
2022/04/05 01:59:00;;;;;;;;;;;;;;;19.67;39.25;100678.20;104553;1308;75964;-84
2022/04/05 02:01:37;;;;;;;;;;;;;;;19.67;39.16;100678.23;104554;1307;59388;-82
2022/04/05 02:04:09;;;;;;;;;;;;;;;19.66;39.14;100674.70;104577;1306;61179;-82
2022/04/05 02:06:35;;;;;;;;;;;;;;;19.66;39.24;100678.08;104683;1305;73604;-84
2022/04/05 02:09:10;;;;;;;;;;;;;;;19.66;39.45;100679.00;104545;1306;61377;-84
2022/04/05 02:11:49;;;;;;;;;;;;;;;19.65;39.24;100679.56;104676;1305;61272;-79
2022/04/05 02:14:35;;;;;;;;;;;;;;;19.65;39.18;100678.36;104665;1306;60983;-85
2022/04/05 02:17:11;;;;;;;;;;;;;;;19.65;39.42;100680.99;104566;1307;74310;-84
2022/04/05 02:19:52;;;;;;;;;;;;;;;19.65;39.40;100680.49;104564;1306;74752;-80
2022/04/05 02:22:20;;;;;;;;;;;;;;;19.64;39.34;100681.59;104592;1305;61332;-78
2022/04/05 02:24:53;;;;;;;;;;;;;;;19.64;39.36;100676.61;104684;1305;61190;-81
2022/04/05 02:27:25;;;;;;;;;;;;;;;19.64;39.24;100676.25;104679;1306;73418;-84
2022/04/05 02:30:07;;;;;;;;;;;;;;;19.64;39.28;100674.64;104672;1306;75132;-82
2022/04/05 02:32:36;;;;;;;;;;;;;;;19.64;39.41;100676.29;104702;1306;61215;-82
2022/04/05 02:35:08;;;;;;;;;;;;;;;19.63;39.24;100675.59;104804;1305;61151;-84
2022/04/05 02:37:45;;;;;;;;;;;;;;;19.63;39.29;100677.41;104555;1308;73266;-85
2022/04/05 02:40:28;;;;;;;;;;;;;;;19.63;39.34;100675.45;104431;1308;75495;-82
2022/04/05 02:43:05;;;;;;;;;;;;;;;19.62;39.24;100673.35;104475;1306;61080;-83
2022/04/05 02:45:47;;;;;;;;;;;;;;;19.62;39.24;100667.86;104587;1307;61285;-85
2022/04/05 02:48:34;;;;;;;;;;;;;;;19.62;39.32;100669.80;104664;1306;72858;-82
2022/04/05 02:51:05;;;;;;;;;;;;;;;19.62;39.45;100665.17;104494;1308;75075;-88
2022/04/05 02:53:34;;;;;;;;;;;;;;;19.61;39.31;100665.73;104567;1306;61172;-81
2022/04/05 02:56:28;;;;;;;;;;;;;;;19.61;39.19;100665.05;104322;1312;60809;-82
2022/04/05 02:59:03;;;;;;;;;;;;;;;19.61;39.36;100667.55;104118;1316;72056;-84
2022/04/05 03:01:31;;;;;;;;;;;;;;;19.61;39.44;100665.95;104263;1313;61424;-85
2022/04/05 03:04:09;;;;;;;;;;;;;;;19.60;39.29;100664.35;104181;1314;61276;-83
2022/04/05 03:06:44;;;;;;;;;;;;;;;19.60;39.30;100665.27;104200;1316;61393;-82
2022/04/05 03:09:18;;;;;;;;;;;;;;;19.59;39.28;100660.30;104173;1316;73695;-82
2022/04/05 03:11:44;;;;;;;;;;;;;;;19.60;39.29;100658.67;104189;1316;61387;-87
2022/04/05 03:14:25;;;;;;;;;;;;;;;19.59;39.31;100658.17;104246;1313;61307;-84
2022/04/05 03:17:09;;;;;;;;;;;;;;;19.59;39.26;100659.08;104198;1313;61890;-82
2022/04/05 03:19:35;;;;;;;;;;;;;;;19.59;39.22;100660.89;104012;1316;72838;-86
2022/04/05 03:22:20;;;;;;;;;;;;;;;19.59;39.22;100655.19;104225;1313;73470;-82
2022/04/05 03:24:49;;;;;;;;;;;;;;;19.58;39.32;100653.61;104249;1313;61537;-84
2022/04/05 03:27:48;;;;;;;;;;;;;;;19.58;39.32;100653.42;104215;1314;61420;-84
2022/04/05 03:30:16;;;;;;;;;;;;;;;19.58;39.28;100653.06;104289;1312;73779;-81
2022/04/05 03:32:47;;;;;;;;;;;;;;;19.58;39.28;100651.30;104204;1313;75113;-87
2022/04/05 03:35:13;;;;;;;;;;;;;;;19.58;39.23;100651.32;104478;1309;61275;-84
2022/04/05 03:37:42;;;;;;;;;;;;;;;19.58;39.21;100653.64;104602;1305;61301;-84
2022/04/05 03:40:21;;;;;;;;;;;;;;;19.57;39.17;100647.40;104562;1306;72150;-84
2022/04/05 03:42:59;;;;;;;;;;;;;;;19.57;39.17;100645.27;104796;1305;74725;-87
2022/04/05 03:45:47;;;;;;;;;;;;;;;19.57;39.31;100645.64;104645;1305;61157;-86
2022/04/05 03:48:13;;;;;;;;;;;;;;;19.56;39.34;100643.91;104547;1305;61177;-83
2022/04/05 03:50:51;;;;;;;;;;;;;;;19.55;39.28;100644.14;104671;1305;73873;-81
2022/04/05 03:53:26;;;;;;;;;;;;;;;19.55;39.18;100649.33;104670;1306;76128;-84
2022/04/05 03:56:00;;;;;;;;;;;;;;;19.55;39.16;100650.93;104807;1304;61230;-81
2022/04/05 03:58:40;;;;;;;;;;;;;;;19.55;39.28;100652.39;104683;1306;62580;-83
2022/04/05 04:01:20;;;;;;;;;;;;;;;19.55;38.98;100653.11;104798;1305;72872;-85
2022/04/05 04:03:57;;;;;;;;;;;;;;;19.55;39.26;100654.71;104626;1305;74827;-82
2022/04/05 04:06:28;;;;;;;;;;;;;;;19.54;39.15;100653.88;104661;1305;61421;-83
2022/04/05 04:09:04;;;;;;;;;;;;;;;19.55;39.10;100656.16;104644;1305;61528;-84
2022/04/05 04:11:32;;;;;;;;;;;;;;;19.55;39.06;100654.19;104625;1305;73557;-82
2022/04/05 04:14:12;;;;;;;;;;;;;;;19.55;39.14;100657.05;104599;1305;74982;-82
2022/04/05 04:16:40;;;;;;;;;;;;;;;19.55;39.09;100658.80;104654;1305;62030;-84
2022/04/05 04:19:12;;;;;;;;;;;;;;;19.57;38.95;100664.95;104672;1305;61255;-83
2022/04/05 04:21:38;;;;;;;;;;;;;;;19.58;38.95;100670.23;104658;1305;72663;-83
2022/04/05 04:24:09;;;;;;;;;;;;;;;19.59;38.95;100668.52;104590;1306;74811;-80
2022/04/05 04:26:37;;;;;;;;;;;;;;;19.61;38.98;100670.23;104530;1305;61403;-81
2022/04/05 04:29:07;;;;;;;;;;;;;;;19.64;38.87;100670.73;104558;1305;61173;-82
2022/04/05 04:31:45;;;;;;;;;;;;;;;19.67;38.86;100672.64;104484;1305;72728;-82
2022/04/05 04:34:11;;;;;;;;;;;;;;;19.70;38.72;100672.98;104542;1306;75680;-83
2022/04/05 04:36:40;;;;;;;;;;;;;;;19.73;38.61;100673.65;104562;1306;61667;-83
2022/04/05 04:39:17;;;;;;;;;;;;;;;19.78;38.54;100675.89;104657;1305;61156;-82
2022/04/05 04:41:44;;;;;;;;;;;;;;;19.81;38.51;100669.59;104517;1305;72867;-82
2022/04/05 04:44:22;;;;;;;;;;;;;;;19.85;38.58;100671.33;104606;1305;74813;-81
2022/04/05 04:46:50;;;;;;;;;;;;;;;19.89;38.62;100669.77;104595;1305;61232;-81
2022/04/05 04:49:16;;;;;;;;;;;;;;;19.92;38.57;100676.15;104551;1305;61424;-83
2022/04/05 04:51:42;;;;;;;;;;;;;;;19.97;38.53;100676.43;104541;1306;61435;-81
2022/04/05 04:54:07;;;;;;;;;;;;;;;20.00;38.43;100674.42;104560;1308;61295;-81
2022/04/05 04:56:39;;;;;;;;;;;;;;;20.03;38.49;100677.02;104623;1305;61473;-78
2022/04/05 04:59:07;;;;;;;;;;;;;;;20.06;38.37;100674.67;104543;1305;61313;-83
2022/04/05 05:01:38;;;;;;;;;;;;;;;20.09;38.55;100674.98;104443;1306;72999;-81
2022/04/05 05:04:07;;;;;;;;;;;;;;;20.13;38.32;100673.88;104646;1305;76175;-81
2022/04/05 05:06:33;;;;;;;;;;;;;;;20.14;38.51;100673.41;104408;1306;61240;-80
2022/04/05 05:09:02;;;;;;;;;;;;;;;20.16;38.47;100671.83;104449;1306;61143;-80
2022/04/05 05:11:28;;;;;;;;;;;;;;;20.19;38.37;100676.11;104416;1305;73717;-80
2022/04/05 05:13:57;;;;;;;;;;;;;;;20.22;38.42;100678.95;104508;1305;60243;-81
2022/04/05 05:16:23;;;;;;;;;;;;;;;20.25;38.32;100678.76;104548;1305;61119;-83
2022/04/05 05:18:50;;;;;;;;;;;;;;;20.26;38.23;100679.77;104419;1306;59395;-82
2022/04/05 05:21:35;;;;;;;;;;;;;;;20.28;38.09;100679.83;104392;1305;72121;-80
2022/04/05 05:24:10;;;;;;;;;;;;;;;20.29;37.92;100680.08;104413;1305;77898;-82
2022/04/05 05:26:39;;;;;;;;;;;;;;;20.31;37.95;100682.11;104655;1305;60878;-79
2022/04/05 05:29:05;;;;;;;;;;;;;;;20.33;37.73;100680.35;104495;1305;61410;-82
2022/04/05 05:31:31;;;;;;;;;;;;;;;20.35;37.74;100679.66;104536;1305;61398;-80
2022/04/05 05:34:03;;;;;;;;;;;;;;;20.37;37.50;100680.95;104665;1305;76121;-80
2022/04/05 05:36:29;;;;;;;;;;;;;;;20.39;37.51;100679.92;104554;1307;61272;-81
2022/04/05 05:39:00;;;;;;;;;;;;;;;20.41;37.43;100680.52;104518;1306;61212;-81
2022/04/05 05:41:37;;;;;;;;;;;;;;;20.42;37.47;100681.15;104378;1305;73910;-80
2022/04/05 05:44:03;;;;;;;;;;;;;;;20.44;37.14;100684.92;104466;1305;76268;-83
2022/04/05 05:46:29;;;;;;;;;;;;;;;20.46;37.06;100686.41;104657;1305;62692;-80
2022/04/05 05:49:18;;;;;;;;;;;;;;;20.48;37.10;100684.16;104535;1306;61204;-81
2022/04/05 05:51:44;;;;;;;;;;;;;;;20.49;36.98;100682.80;104141;1312;71869;-80
2022/04/05 05:54:13;;;;;;;;;;;;;;;20.51;36.86;100679.98;104162;1311;74294;-83
2022/04/05 05:56:39;;;;;;;;;;;;;;;20.52;36.92;100679.92;104109;1311;61410;-83
2022/04/05 05:59:08;;;;;;;;;;;;;;;20.53;36.97;100679.30;104104;1312;61621;-82
2022/04/05 06:01:36;;;;;;;;;;;;;;;20.56;36.86;100678.05;104157;1311;72830;-81
2022/04/05 06:04:02;;;;;;;;;;;;;;;20.56;36.91;100681.91;104134;1311;61343;-83
2022/04/05 06:06:31;;;;;;;;;;;;;;;20.58;36.85;100680.52;104207;1311;61431;-79
2022/04/05 06:08:57;;;;;;;;;;;;;;;20.60;36.88;100681.67;104186;1311;61604;-82
2022/04/05 06:11:26;;;;;;;;;;;;;;;20.61;36.73;100673.56;104129;1311;61240;-80
2022/04/05 06:13:52;;;;;;;;;;;;;;;20.63;36.59;100668.98;104191;1310;74150;-79
2022/04/05 06:16:21;;;;;;;;;;;;;;;20.64;36.68;100669.23;104161;1311;63715;-80
2022/04/05 06:18:52;;;;;;;;;;;;;;;20.65;36.76;100663.60;104286;1311;61232;-83
2022/04/05 06:21:33;;;;;;;;;;;;;;;20.66;36.71;100659.61;104184;1311;73947;-81
2022/04/05 06:23:59;;;;;;;;;;;;;;;20.67;36.63;100658.10;104184;1311;61381;-82
2022/04/05 06:26:25;;;;;;;;;;;;;;;20.69;36.63;100653.34;104172;1311;61228;-81
2022/04/05 06:28:54;;;;;;;;;;;;;;;20.71;36.74;100652.52;104331;1306;61352;-82
2022/04/05 06:31:22;;;;;;;;;;;;;;;20.72;36.68;100655.10;104426;1305;73936;-82
2022/04/05 06:33:51;;;;;;;;;;;;;;;20.74;36.66;100656.77;104295;1308;75005;-82
2022/04/05 06:36:22;;;;;;;;;;;;;;;20.75;36.67;100652.39;104355;1306;61266;-79
2022/04/05 06:38:50;;;;;;;;;;;;;;;20.76;36.54;100656.75;104454;1305;61340;-83
2022/04/05 06:41:16;;;;;;;;;;;;;;;20.78;36.61;100658.77;104474;1305;73989;-81
2022/04/05 06:43:42;;;;;;;;;;;;;;;20.80;36.69;100657.24;104547;1305;61285;-80
2022/04/05 06:46:09;;;;;;;;;;;;;;;20.81;36.59;100659.45;104455;1305;61269;-85
2022/04/05 06:48:34;;;;;;;;;;;;;;;20.83;36.72;100657.48;103692;1306;1042551;-81
2022/04/05 06:51:06;;;;;;;;;;;;;;;20.85;36.63;100653.30;104434;1306;72931;-80
2022/04/05 06:53:32;;;;;;;;;;;;;;;20.86;36.72;100656.09;104367;1305;76163;-81
2022/04/05 06:56:02;;;;;;;;;;;;;;;20.87;36.65;100655.06;104460;1306;61305;-81
2022/04/05 06:58:28;;;;;;;;;;;;;;;20.88;36.69;100652.74;104488;1305;61520;-81
2022/04/05 07:00:53;;;;;;;;;;;;;;;20.90;36.52;100656.30;104448;1305;59791;-82
2022/04/05 07:03:19;;;;;;;;;;;;;;;20.91;36.44;100659.27;104402;1305;61269;-80
2022/04/05 07:05:45;;;;;;;;;;;;;;;20.91;36.55;100659.25;104454;1305;61310;-80
2022/04/05 07:08:11;;;;;;;;;;;;;;;20.91;36.55;100653.15;104375;1308;61420;-80
2022/04/05 07:10:37;;;;;;;;;;;;;;;20.92;36.48;100655.25;104425;1305;61246;-81
2022/04/05 07:13:03;;;;;;;;;;;;;;;20.93;36.63;100654.48;104506;1306;61260;-84
2022/04/05 07:15:29;;;;;;;;;;;;;;;20.93;36.56;100653.91;104464;1305;75570;-80
2022/04/05 07:17:55;;;;;;;;;;;;;;;20.93;36.54;100650.86;104547;1306;61328;-82
2022/04/05 07:20:21;;;;;;;;;;;;;;;20.93;36.55;100651.38;104505;1305;61321;-80
2022/04/05 07:22:48;;;;;;;;;;;;;;;20.94;36.38;100653.16;104326;1307;61252;-83
2022/04/05 07:25:15;;;;;;;;;;;;;;;20.95;36.55;100652.23;104243;1308;61840;-81
2022/04/05 07:27:40;;;;;;;;;;;;;;;20.95;36.56;100657.94;104381;1308;63543;-81
2022/04/05 07:30:07;;;;;;;;;;;;;;;20.95;36.42;100657.23;104160;1311;59717;-82
2022/04/05 07:32:38;;;;;;;;;;;;;;;20.95;36.64;100654.17;104267;1308;61311;-82
2022/04/05 07:35:04;;;;;;;;;;;;;;;20.95;36.45;100649.87;104398;1308;74769;-82
2022/04/05 07:37:30;;;;;;;;;;;;;;;20.96;36.50;100650.18;104148;1311;59646;-80
2022/04/05 07:40:00;;;;;;;;;;;;;;;20.96;36.63;100651.63;104294;1308;61103;-81
2022/04/05 07:42:26;;;;;;;;;;;;;;;20.95;36.59;100647.58;104225;1308;72802;-80
2022/04/05 07:44:52;;;;;;;;;;;;;;;20.92;36.46;100649.38;104261;1308;62074;-81
2022/04/05 07:47:18;;;;;;;;;;;;;;;20.88;36.22;100646.23;104216;1308;59739;-81
2022/04/05 07:49:46;;;;;;;;;;;;;;;20.85;35.94;100647.69;104172;1310;61382;-81
2022/04/05 07:52:11;;;;;;;;;;;;;;;20.81;35.73;100649.28;104283;1308;61244;-80
2022/04/05 07:54:37;;;;;;;;;;;;;;;20.77;35.57;100648.15;104264;1305;61286;-80
2022/04/05 07:57:06;;;;;;;;;;;;;;;20.74;35.41;100645.48;104499;1305;59565;-81
2022/04/05 07:59:32;;;;;;;;;;;;;;;20.71;34.98;100645.30;104430;1305;60842;-81
2022/04/05 08:02:00;;;;;;;;;;;;;;;20.70;34.99;100648.83;104561;1305;61362;-81
2022/04/05 08:04:26;;;;;;;;;;;;;;;20.68;34.88;100641.75;104488;1305;74665;-80
2022/04/05 08:06:52;;;;;;;;;;;;;;;20.66;34.76;100642.97;104528;1305;59440;-80
2022/04/05 08:09:18;;;;;;;;;;;;;;;20.64;34.68;100637.59;104416;1306;59559;-81
2022/04/05 08:11:45;;;;;;;;;;;;;;;20.62;34.38;100636.68;104456;1306;61211;-81
2022/04/05 08:14:11;;;;;;;;;;;;;;;20.59;34.28;100629.91;104381;1305;60134;-80
2022/04/05 08:16:38;;;;;;;;;;;;;;;20.56;34.28;100625.27;104521;1305;61147;-81
2022/04/05 08:19:04;;;;;;;;;;;;;;;20.54;34.12;100624.69;104541;1305;61246;-81
2022/04/05 08:21:30;;;;;;;;;;;;;;;20.53;34.08;100616.56;104570;1305;61290;-81
2022/04/05 08:23:55;;;;;;;;;;;;;;;20.52;33.86;100619.66;104445;1306;61355;-81
2022/04/05 08:26:21;;;;;;;;;;;;;;;20.52;33.87;100620.00;104581;1306;61276;-80
2022/04/05 08:28:47;;;;;;;;;;;;;;;20.52;33.99;100614.30;104557;1308;62400;-80
2022/04/05 08:31:12;;;;;;;;;;;;;;;20.51;34.00;100614.19;104549;1305;61305;-79
2022/04/05 08:33:40;;;;;;;;;;;;;;;20.51;33.94;100607.60;104596;1305;61274;-81
2022/04/05 08:36:06;;;;;;;;;;;;;;;20.51;33.82;100606.52;104360;1307;75772;-81
2022/04/05 08:38:35;;;;;;;;;;;;;;;20.50;33.89;100596.58;104705;1305;61163;-81
2022/04/05 08:41:05;;;;;;;;;;;;;;;20.50;33.94;100589.98;104576;1306;61151;-85
2022/04/05 08:43:34;;;;;;;;;;;;;;;20.48;33.99;100593.52;104683;1305;73297;-82
2022/04/05 08:46:05;;;;;;;;;;;;;;;20.48;33.93;100591.92;104659;1306;74010;-81
2022/04/05 08:48:31;;;;;;;;;;;;;;;20.46;34.01;100593.60;104667;1306;61627;-82
2022/04/05 08:51:00;;;;;;;;;;;;;;;20.45;34.04;100593.33;104610;1305;61361;-81
2022/04/05 08:53:41;;;;;;;;;;;;;;;20.44;33.91;100590.71;104543;1305;72769;-81
2022/04/05 08:56:10;;;;;;;;;;;;;;;20.43;33.97;100587.78;104580;1304;74884;-81
2022/04/05 08:58:39;;;;;;;;;;;;;;;20.42;34.25;100587.67;104489;1305;61535;-80
2022/04/05 09:01:08;;;;;;;;;;;;;;;20.41;34.23;100581.82;104484;1305;61214;-82
2022/04/05 09:03:40;;;;;;;;;;;;;;;20.40;34.15;100572.23;104416;1305;73220;-80
2022/04/05 09:06:46;;;;;;;;;;;;;;;20.39;34.12;100573.20;104454;1305;76083;-83
2022/04/05 09:09:28;;;;;;;;;;;;;;;20.39;34.36;100567.30;105037;1305;60619;-80
2022/04/05 09:12:06;;;;;;;;;;;;;;;20.39;34.28;100564.64;104539;1305;61204;-80
2022/04/05 09:14:41;;;;;;;;;;;;;;;20.39;34.49;100562.35;104379;1306;72718;-81
2022/04/05 09:17:07;;;;;;;;;;;;;;;20.38;34.32;100559.17;104477;1306;74615;-80
2022/04/05 09:19:47;;;;;;;;;;;;;;;;;;;;;
2022/04/05 09:22:35;;;;;;;;;;;;;;;20.38;34.49;100545.94;104566;1306;61794;-82
2022/04/05 09:25:45;;;;;;;;;;;;;;;20.38;34.60;100543.77;104637;1305;72748;-80
2022/04/05 09:28:36;;;;;;;;;;;;;;;20.38;34.42;100539.72;104782;1305;74788;-83
2022/04/05 09:31:24;;;;;;;;;;;;;;;20.37;34.43;100540.49;104174;1317;61297;-81
2022/04/05 09:34:34;;;;;;;;;;;;;;;20.36;34.57;100531.81;104141;1316;61174;-80
2022/04/05 09:37:13;;;;;;;;;;;;;;;20.35;34.66;100520.58;103116;1323;72158;-82
2022/04/05 09:40:34;;;;;;;;;;;;;;;20.35;34.76;100524.38;102907;1322;74764;-80
2022/04/05 09:43:41;;;;;;;;;;;;;;;20.34;34.71;100518.54;103023;1321;61450;-80
2022/04/05 09:46:33;;;;;;;;;;;;;;;20.33;34.85;100504.80;103201;1322;61476;-81
2022/04/05 09:49:19;;;;;;;;;;;;;;;20.32;34.83;100500.26;103345;1318;74084;-80
2022/04/05 09:52:09;;;;;;;;;;;;;;;;;;;;;
2022/04/05 09:54:54;;;;;;;;;;;;;;;;;;;;;
2022/04/05 09:57:47;;;;;;;;;;;;;;;;;;;;;
2022/04/05 10:00:28;;;;;;;;;;;;;;;20.30;34.87;100490.59;103262;1320;73903;-83
2022/04/05 10:03:24;;;;;;;;;;;;;;;;;;;;;
2022/04/05 10:06:06;;;;;;;;;;;;;;;20.29;34.92;100476.40;103240;1320;61340;-81
2022/04/05 10:09:03;;;;;;;;;;;;;;;;;;;;;
2022/04/05 10:11:39;;;;;;;;;;;;;;;20.28;35.00;100464.64;103765;1315;72229;-81
2022/04/05 10:14:12;;;;;;;;;;;;;;;20.28;34.99;100460.38;104083;1316;74077;-82
2022/04/05 10:17:04;;;;;;;;;;;;;;;20.27;35.06;100452.74;103752;1317;61402;-81
2022/04/05 10:19:41;;;;;;;;;;;;;;;20.26;35.07;100448.14;104106;1315;61338;-87
2022/04/05 10:22:28;;;;;;;;;;;;;;;20.25;35.08;100450.89;103912;1316;73278;-84
2022/04/05 10:24:53;;;;;;;;;;;;;;;20.25;35.14;100446.11;104016;1315;76597;-81
2022/04/05 10:27:30;;;;;;;;;;;;;;;20.24;35.22;100436.15;104090;1316;61322;-80
2022/04/05 10:30:19;;;;;;;;;;;;;;;20.23;35.13;100429.04;104175;1316;60545;-81
2022/04/05 10:33:13;;;;;;;;;;;;;;;20.22;35.20;100422.52;103083;1322;72883;-82
2022/04/05 10:35:57;;;;;;;;;;;;;;;;;;;;;
2022/04/05 10:38:43;;;;;;;;;;;;;;;20.21;35.26;100419.00;103208;1320;61194;-81
2022/04/05 10:41:18;;;;;;;;;;;;;;;20.21;35.29;100419.36;103157;1320;61633;-80
2022/04/05 10:43:49;;;;;;;;;;;;;;;20.21;35.28;100416.90;102917;1322;73806;-81
2022/04/05 10:46:18;;;;;;;;;;;;;;;20.21;35.28;100400.81;103141;1321;74795;-82
2022/04/05 10:48:59;;;;;;;;;;;;;;;20.20;35.29;100393.89;102983;1322;61221;-80
2022/04/05 10:51:41;;;;;;;;;;;;;;;;;;;;;
2022/04/05 10:54:28;;;;;;;;;;;;;;;20.19;35.38;100389.16;103072;1322;72954;-81
2022/04/05 10:57:13;;;;;;;;;;;;;;;20.19;35.37;100381.48;103115;1322;74729;-83
2022/04/05 11:00:00;;;;;;;;;;;;;;;20.19;35.39;100386.36;103193;1320;61417;-83
2022/04/05 11:02:56;;;;;;;;;;;;;;;20.18;35.47;100375.48;103115;1320;61043;-81
2022/04/05 11:05:43;;;;;;;;;;;;;;;20.18;35.40;100368.71;103052;1320;73889;-81
2022/04/05 11:08:17;;;;;;;;;;;;;;;20.17;35.45;100359.45;102739;1325;73723;-82
2022/04/05 11:11:08;;;;;;;;;;;;;;;20.17;35.47;100360.36;103143;1320;61785;-83
2022/04/05 11:13:49;;;;;;;;;;;;;;;20.17;35.53;100358.36;103287;1320;61625;-80
2022/04/05 11:16:26;;;;;;;;;;;;;;;;;;;;;
2022/04/05 11:19:09;;;;;;;;;;;;;;;20.17;35.47;100358.09;103091;1320;74859;-80
2022/04/05 11:21:57;;;;;;;;;;;;;;;20.16;35.56;100346.31;103117;1320;61620;-80
2022/04/05 11:24:41;;;;;;;;;;;;;;;20.16;35.59;100344.00;103256;1320;61279;-81
2022/04/05 11:27:28;;;;;;;;;;;;;;;20.17;35.58;100345.23;102797;1325;71870;-80
2022/04/05 11:30:27;;;;;;;;;;;;;;;20.16;35.63;100335.44;102671;1326;75820;-81
2022/04/05 11:33:16;;;;;;;;;;;;;;;20.16;35.65;100335.27;102897;1326;61418;-81
2022/04/05 11:35:56;;;;;;;;;;;;;;;20.16;35.67;100326.33;102778;1326;61142;-83
2022/04/05 11:38:58;;;;;;;;;;;;;;;20.16;35.65;100318.27;102365;1332;71445;-84
2022/04/05 11:41:27;;;;;;;;;;;;;;;20.16;35.69;100320.92;102388;1332;76029;-79
2022/04/05 11:44:17;;;;;;;;;;;;;;;20.16;35.68;100310.78;102339;1332;61535;-85
2022/04/05 11:47:02;;;;;;;;;;;;;;;20.16;35.70;100314.36;102638;1326;61384;-82
2022/04/05 11:49:59;;;;;;;;;;;;;;;20.16;35.66;100301.84;102895;1325;72968;-84
2022/04/05 11:52:34;;;;;;;;;;;;;;;20.16;35.68;100302.75;102451;1331;75707;-83
2022/04/05 11:58:41;;;;;;;;;;;;;;;20.16;35.76;100298.13;102511;1332;61300;-82
2022/04/05 12:01:36;;;;;;;;;;;;;;;20.15;35.70;100294.92;102422;1332;73972;-84
2022/04/05 12:04:20;;;;;;;;;;;;;;;20.16;35.75;100297.58;102407;1329;74883;-83
2022/04/05 12:07:02;;;;;;;;;;;;;;;20.16;35.80;100294.73;102753;1327;61354;-84
2022/04/05 12:09:51;;;;;;;;;;;;;;;20.16;35.76;100286.68;102788;1329;61176;-83
2022/04/05 12:12:26;;;;;;;;;;;;;;;20.16;35.75;100286.33;102754;1328;73433;-87
2022/04/05 12:15:12;;;;;;;;;;;;;;;20.15;35.79;100282.60;102781;1328;74948;-82
2022/04/05 12:17:51;;;;;;;;;;;;;;;20.16;35.81;100277.75;103410;1318;61284;-84
2022/04/05 12:20:57;;;;;;;;;;;;;;;20.15;35.78;100279.05;103270;1320;61202;-82
2022/04/05 12:23:42;;;;;;;;;;;;;;;20.15;35.78;100276.70;103210;1320;72803;-83
2022/04/05 12:26:33;;;;;;;;;;;;;;;20.16;35.80;100267.93;103199;1320;75033;-82
2022/04/05 12:29:08;;;;;;;;;;;;;;;20.15;35.84;100262.80;103141;1319;61448;-82
2022/04/05 12:31:58;;;;;;;;;;;;;;;;;;;;;
2022/04/05 12:34:46;;;;;;;;;;;;;;;20.15;35.81;100255.27;103941;1316;71595;-85
2022/04/05 12:37:35;;;;;;;;;;;;;;;20.16;35.90;100245.06;104128;1316;75105;-84
2022/04/05 12:40:17;;;;;;;;;;;;;;;20.16;35.93;100243.11;103973;1316;61195;-83
2022/04/05 12:42:57;;;;;;;;;;;;;;;20.15;35.89;100233.67;103619;1317;61184;-83
2022/04/05 12:45:54;;;;;;;;;;;;;;;;;;;;;
2022/04/05 12:48:32;;;;;;;;;;;;;;;20.15;36.04;100230.27;104230;1311;75052;-84
2022/04/05 12:51:41;;;;;;;;;;;;;;;20.15;35.80;100230.61;104251;1311;61323;-85
2022/04/05 12:54:32;;;;;;;;;;;;;;;20.16;35.95;100234.16;104351;1311;61381;-80
2022/04/05 12:57:30;;;;;;;;;;;;;;;20.16;35.91;100217.74;104274;1313;72659;-84
2022/04/05 13:00:18;;;;;;;;;;;;;;;20.15;35.91;100208.09;104315;1311;75863;-82
2022/04/05 13:03:08;;;;;;;;;;;;;;;20.15;35.88;100212.39;104170;1311;61426;-80
2022/04/05 13:06:22;;;;;;;;;;;;;;;20.16;35.88;100209.31;104378;1311;61361;-82
2022/04/05 13:08:59;;;;;;;;;;;;;;;;;;;;;
2022/04/05 13:11:37;;;;;;;;;;;;;;;20.16;36.14;100200.52;103963;1311;75830;-81
2022/04/05 13:14:26;;;;;;;;;;;;;;;;;;;;;
2022/04/05 13:17:14;;;;;;;;;;;;;;;;;;;;;
2022/04/05 13:20:07;;;;;;;;;;;;;;;20.17;36.13;100198.73;103927;1316;72514;-80
2022/04/05 13:22:56;;;;;;;;;;;;;;;20.17;36.17;100193.54;103669;1316;74866;-82
2022/04/05 13:25:52;;;;;;;;;;;;;;;;;;;;;
2022/04/05 13:28:55;;;;;;;;;;;;;;;20.17;36.22;100185.44;103322;1321;60463;-81
2022/04/05 13:31:54;;;;;;;;;;;;;;;20.17;36.07;100194.55;103042;1322;74044;-82
2022/04/05 13:34:53;;;;;;;;;;;;;;;20.17;36.10;100187.23;103334;1322;75793;-81
2022/04/05 13:37:29;;;;;;;;;;;;;;;;;;;;;
2022/04/05 13:40:33;;;;;;;;;;;;;;;;;;;;;
2022/04/05 13:43:09;;;;;;;;;;;;;;;20.18;36.18;100178.41;102687;1329;73868;-82